sensor_id;sensor_type;location;lat;lon;timestamp;temperature;humidity
25732;DHT22;13585;50.864;4.406;2023-04-19T00:00:39;19.40;67.90
25732;DHT22;13585;50.864;4.406;2023-04-19T00:03:06;19.40;67.00
25732;DHT22;13585;50.864;4.406;2023-04-19T00:05:31;19.40;67.00
25732;DHT22;13585;50.864;4.406;2023-04-19T00:07:57;19.40;67.00
25732;DHT22;13585;50.864;4.406;2023-04-19T00:10:23;19.30;66.90
25732;DHT22;13585;50.864;4.406;2023-04-19T00:12:49;19.40;66.90
25732;DHT22;13585;50.864;4.406;2023-04-19T00:15:14;19.30;66.80
25732;DHT22;13585;50.864;4.406;2023-04-19T00:17:40;19.40;66.80
25732;DHT22;13585;50.864;4.406;2023-04-19T00:20:06;19.40;66.80
25732;DHT22;13585;50.864;4.406;2023-04-19T00:22:33;19.40;66.80
25732;DHT22;13585;50.864;4.406;2023-04-19T00:24:59;19.40;66.80
25732;DHT22;13585;50.864;4.406;2023-04-19T00:27:25;19.30;66.70
25732;DHT22;13585;50.864;4.406;2023-04-19T00:29:51;19.30;66.70
25732;DHT22;13585;50.864;4.406;2023-04-19T00:32:16;19.30;66.70
25732;DHT22;13585;50.864;4.406;2023-04-19T00:34:42;19.30;66.70
25732;DHT22;13585;50.864;4.406;2023-04-19T00:37:08;19.30;66.70
25732;DHT22;13585;50.864;4.406;2023-04-19T00:39:35;19.30;66.60
25732;DHT22;13585;50.864;4.406;2023-04-19T00:42:01;19.40;66.60
25732;DHT22;13585;50.864;4.406;2023-04-19T00:44:27;19.40;66.60
25732;DHT22;13585;50.864;4.406;2023-04-19T00:46:53;19.30;66.50
25732;DHT22;13585;50.864;4.406;2023-04-19T00:49:22;19.30;66.50
25732;DHT22;13585;50.864;4.406;2023-04-19T00:51:49;19.30;66.40
25732;DHT22;13585;50.864;4.406;2023-04-19T00:54:15;19.30;66.40
25732;DHT22;13585;50.864;4.406;2023-04-19T00:56:41;19.30;66.40
25732;DHT22;13585;50.864;4.406;2023-04-19T00:59:11;19.30;66.40
25732;DHT22;13585;50.864;4.406;2023-04-19T01:01:37;19.30;66.40
25732;DHT22;13585;50.864;4.406;2023-04-19T01:04:04;19.30;66.30
25732;DHT22;13585;50.864;4.406;2023-04-19T01:06:31;19.30;66.20
25732;DHT22;13585;50.864;4.406;2023-04-19T01:08:56;19.30;66.20
25732;DHT22;13585;50.864;4.406;2023-04-19T01:11:22;19.30;66.20
25732;DHT22;13585;50.864;4.406;2023-04-19T01:13:48;19.30;66.90
25732;DHT22;13585;50.864;4.406;2023-04-19T01:16:14;19.30;66.10
25732;DHT22;13585;50.864;4.406;2023-04-19T01:18:40;19.30;66.00
25732;DHT22;13585;50.864;4.406;2023-04-19T01:21:07;19.30;66.00
25732;DHT22;13585;50.864;4.406;2023-04-19T01:23:33;19.30;66.00
25732;DHT22;13585;50.864;4.406;2023-04-19T01:26:00;19.30;66.00
25732;DHT22;13585;50.864;4.406;2023-04-19T01:28:26;19.30;65.90
25732;DHT22;13585;50.864;4.406;2023-04-19T01:30:51;19.30;65.90
25732;DHT22;13585;50.864;4.406;2023-04-19T01:33:18;19.30;65.80
25732;DHT22;13585;50.864;4.406;2023-04-19T01:35:44;19.30;65.80
25732;DHT22;13585;50.864;4.406;2023-04-19T01:38:11;19.20;65.70
25732;DHT22;13585;50.864;4.406;2023-04-19T01:40:36;19.30;65.70
25732;DHT22;13585;50.864;4.406;2023-04-19T01:43:02;19.20;65.60
25732;DHT22;13585;50.864;4.406;2023-04-19T01:45:28;19.20;65.60
25732;DHT22;13585;50.864;4.406;2023-04-19T01:47:53;19.30;65.60
25732;DHT22;13585;50.864;4.406;2023-04-19T01:50:20;19.20;65.50
25732;DHT22;13585;50.864;4.406;2023-04-19T01:56:08;19.20;65.50
25732;DHT22;13585;50.864;4.406;2023-04-19T01:58:36;19.30;65.30
25732;DHT22;13585;50.864;4.406;2023-04-19T02:01:02;19.20;65.30
25732;DHT22;13585;50.864;4.406;2023-04-19T02:03:27;19.20;65.30
25732;DHT22;13585;50.864;4.406;2023-04-19T02:05:53;19.20;65.20
25732;DHT22;13585;50.864;4.406;2023-04-19T02:08:19;19.20;65.20
25732;DHT22;13585;50.864;4.406;2023-04-19T02:10:44;19.20;65.20
25732;DHT22;13585;50.864;4.406;2023-04-19T02:13:10;19.20;65.10
25732;DHT22;13585;50.864;4.406;2023-04-19T02:15:36;19.20;65.10
25732;DHT22;13585;50.864;4.406;2023-04-19T02:18:02;19.20;65.40
25732;DHT22;13585;50.864;4.406;2023-04-19T02:20:31;19.20;65.00
25732;DHT22;13585;50.864;4.406;2023-04-19T02:22:56;19.20;65.00
25732;DHT22;13585;50.864;4.406;2023-04-19T02:25:22;19.20;64.90
25732;DHT22;13585;50.864;4.406;2023-04-19T02:27:56;19.20;64.90
25732;DHT22;13585;50.864;4.406;2023-04-19T02:30:22;19.20;64.80
25732;DHT22;13585;50.864;4.406;2023-04-19T02:32:48;19.20;64.80
25732;DHT22;13585;50.864;4.406;2023-04-19T02:35:14;19.20;64.80
25732;DHT22;13585;50.864;4.406;2023-04-19T02:37:39;19.20;64.70
25732;DHT22;13585;50.864;4.406;2023-04-19T02:40:06;19.20;64.70
25732;DHT22;13585;50.864;4.406;2023-04-19T02:42:32;19.20;64.70
25732;DHT22;13585;50.864;4.406;2023-04-19T02:44:57;19.20;64.60
25732;DHT22;13585;50.864;4.406;2023-04-19T02:47:23;19.20;64.60
25732;DHT22;13585;50.864;4.406;2023-04-19T02:49:49;19.20;64.60
25732;DHT22;13585;50.864;4.406;2023-04-19T02:52:14;19.20;64.60
25732;DHT22;13585;50.864;4.406;2023-04-19T02:54:40;19.20;64.50
25732;DHT22;13585;50.864;4.406;2023-04-19T02:57:06;19.20;64.50
25732;DHT22;13585;50.864;4.406;2023-04-19T02:59:31;19.20;64.50
25732;DHT22;13585;50.864;4.406;2023-04-19T03:01:57;19.20;64.40
25732;DHT22;13585;50.864;4.406;2023-04-19T03:04:22;19.20;64.50
25732;DHT22;13585;50.864;4.406;2023-04-19T03:06:48;19.20;64.40
25732;DHT22;13585;50.864;4.406;2023-04-19T03:09:13;19.20;64.40
25732;DHT22;13585;50.864;4.406;2023-04-19T03:11:39;19.20;64.40
25732;DHT22;13585;50.864;4.406;2023-04-19T03:14:05;19.20;64.40
25732;DHT22;13585;50.864;4.406;2023-04-19T03:16:30;19.20;64.40
25732;DHT22;13585;50.864;4.406;2023-04-19T03:19:03;19.20;64.30
25732;DHT22;13585;50.864;4.406;2023-04-19T03:21:29;19.20;64.30
25732;DHT22;13585;50.864;4.406;2023-04-19T03:23:55;19.20;64.20
25732;DHT22;13585;50.864;4.406;2023-04-19T03:26:20;19.20;64.20
25732;DHT22;13585;50.864;4.406;2023-04-19T03:28:46;19.20;64.20
25732;DHT22;13585;50.864;4.406;2023-04-19T03:31:13;19.20;64.20
25732;DHT22;13585;50.864;4.406;2023-04-19T03:33:38;19.20;64.20
25732;DHT22;13585;50.864;4.406;2023-04-19T03:36:04;19.20;64.20
25732;DHT22;13585;50.864;4.406;2023-04-19T03:38:31;19.20;64.20
25732;DHT22;13585;50.864;4.406;2023-04-19T03:40:57;19.20;64.10
25732;DHT22;13585;50.864;4.406;2023-04-19T03:43:22;19.20;64.10
25732;DHT22;13585;50.864;4.406;2023-04-19T03:45:51;19.20;64.10
25732;DHT22;13585;50.864;4.406;2023-04-19T03:48:16;19.20;64.00
25732;DHT22;13585;50.864;4.406;2023-04-19T03:50:42;19.10;64.00
25732;DHT22;13585;50.864;4.406;2023-04-19T03:53:08;19.20;64.00
25732;DHT22;13585;50.864;4.406;2023-04-19T03:55:34;19.20;64.00
25732;DHT22;13585;50.864;4.406;2023-04-19T03:57:59;19.10;63.90
25732;DHT22;13585;50.864;4.406;2023-04-19T04:00:25;19.20;64.00
25732;DHT22;13585;50.864;4.406;2023-04-19T04:02:51;19.10;63.80
25732;DHT22;13585;50.864;4.406;2023-04-19T04:05:17;19.20;64.00
25732;DHT22;13585;50.864;4.406;2023-04-19T04:07:43;19.20;63.90
25732;DHT22;13585;50.864;4.406;2023-04-19T04:10:08;19.20;63.90
25732;DHT22;13585;50.864;4.406;2023-04-19T04:12:34;19.10;63.80
25732;DHT22;13585;50.864;4.406;2023-04-19T04:15:00;19.20;63.80
25732;DHT22;13585;50.864;4.406;2023-04-19T04:17:25;19.10;63.80
25732;DHT22;13585;50.864;4.406;2023-04-19T04:19:51;19.10;63.70
25732;DHT22;13585;50.864;4.406;2023-04-19T04:22:16;19.10;63.70
25732;DHT22;13585;50.864;4.406;2023-04-19T04:24:42;19.10;63.70
25732;DHT22;13585;50.864;4.406;2023-04-19T04:27:09;19.10;63.70
25732;DHT22;13585;50.864;4.406;2023-04-19T04:29:35;19.10;63.70
25732;DHT22;13585;50.864;4.406;2023-04-19T04:32:05;19.10;63.60
25732;DHT22;13585;50.864;4.406;2023-04-19T04:34:33;19.10;63.60
25732;DHT22;13585;50.864;4.406;2023-04-19T04:36:58;19.10;63.60
25732;DHT22;13585;50.864;4.406;2023-04-19T04:39:25;19.10;63.50
25732;DHT22;13585;50.864;4.406;2023-04-19T04:41:51;19.10;63.60
25732;DHT22;13585;50.864;4.406;2023-04-19T04:44:17;19.10;63.50
25732;DHT22;13585;50.864;4.406;2023-04-19T04:46:45;19.10;63.50
25732;DHT22;13585;50.864;4.406;2023-04-19T04:49:10;19.10;63.50
25732;DHT22;13585;50.864;4.406;2023-04-19T04:51:36;19.10;63.40
25732;DHT22;13585;50.864;4.406;2023-04-19T04:54:02;19.10;63.20
25732;DHT22;13585;50.864;4.406;2023-04-19T04:56:29;19.10;63.20
25732;DHT22;13585;50.864;4.406;2023-04-19T04:58:55;19.10;63.40
25732;DHT22;13585;50.864;4.406;2023-04-19T05:01:21;19.10;63.30
25732;DHT22;13585;50.864;4.406;2023-04-19T05:03:48;19.10;63.00
25732;DHT22;13585;50.864;4.406;2023-04-19T05:06:14;19.10;63.00
25732;DHT22;13585;50.864;4.406;2023-04-19T05:08:40;19.10;63.10
25732;DHT22;13585;50.864;4.406;2023-04-19T05:11:05;19.10;63.30
25732;DHT22;13585;50.864;4.406;2023-04-19T05:13:31;19.10;63.30
25732;DHT22;13585;50.864;4.406;2023-04-19T05:15:56;19.10;63.40
25732;DHT22;13585;50.864;4.406;2023-04-19T05:18:22;19.10;63.40
25732;DHT22;13585;50.864;4.406;2023-04-19T05:20:51;19.10;63.40
25732;DHT22;13585;50.864;4.406;2023-04-19T05:23:20;19.10;63.40
25732;DHT22;13585;50.864;4.406;2023-04-19T05:26:09;19.10;63.40
25732;DHT22;13585;50.864;4.406;2023-04-19T05:28:40;19.10;63.50
25732;DHT22;13585;50.864;4.406;2023-04-19T05:31:09;19.10;63.40
25732;DHT22;13585;50.864;4.406;2023-04-19T05:33:35;19.10;63.40
25732;DHT22;13585;50.864;4.406;2023-04-19T05:36:00;19.10;63.50
25732;DHT22;13585;50.864;4.406;2023-04-19T05:38:26;19.10;63.40
25732;DHT22;13585;50.864;4.406;2023-04-19T05:40:54;19.10;63.40
25732;DHT22;13585;50.864;4.406;2023-04-19T05:43:20;19.10;63.50
25732;DHT22;13585;50.864;4.406;2023-04-19T05:45:46;19.10;63.50
25732;DHT22;13585;50.864;4.406;2023-04-19T05:48:12;19.10;63.50
25732;DHT22;13585;50.864;4.406;2023-04-19T05:50:38;19.10;63.50
25732;DHT22;13585;50.864;4.406;2023-04-19T05:53:06;19.00;63.50
25732;DHT22;13585;50.864;4.406;2023-04-19T05:55:32;19.10;63.50
25732;DHT22;13585;50.864;4.406;2023-04-19T05:57:58;19.10;63.50
25732;DHT22;13585;50.864;4.406;2023-04-19T06:00:23;19.10;63.50
25732;DHT22;13585;50.864;4.406;2023-04-19T06:02:49;19.10;63.50
25732;DHT22;13585;50.864;4.406;2023-04-19T06:05:15;19.10;63.40
25732;DHT22;13585;50.864;4.406;2023-04-19T06:07:41;19.10;63.40
25732;DHT22;13585;50.864;4.406;2023-04-19T06:10:07;19.00;63.40
25732;DHT22;13585;50.864;4.406;2023-04-19T06:12:33;19.00;63.30
25732;DHT22;13585;50.864;4.406;2023-04-19T06:14:58;19.20;63.40
25732;DHT22;13585;50.864;4.406;2023-04-19T06:17:24;19.10;63.40
25732;DHT22;13585;50.864;4.406;2023-04-19T06:19:50;19.00;63.30
25732;DHT22;13585;50.864;4.406;2023-04-19T06:22:16;19.10;63.30
25732;DHT22;13585;50.864;4.406;2023-04-19T06:24:43;19.10;63.30
25732;DHT22;13585;50.864;4.406;2023-04-19T06:27:10;19.00;63.20
25732;DHT22;13585;50.864;4.406;2023-04-19T06:29:36;19.10;63.20
25732;DHT22;13585;50.864;4.406;2023-04-19T06:32:01;19.00;63.20
25732;DHT22;13585;50.864;4.406;2023-04-19T06:34:27;19.10;63.20
25732;DHT22;13585;50.864;4.406;2023-04-19T06:36:53;19.10;63.10
25732;DHT22;13585;50.864;4.406;2023-04-19T06:39:19;19.00;63.00
25732;DHT22;13585;50.864;4.406;2023-04-19T06:41:44;19.00;63.00
25732;DHT22;13585;50.864;4.406;2023-04-19T06:44:10;19.10;63.10
25732;DHT22;13585;50.864;4.406;2023-04-19T06:46:37;19.10;63.10
25732;DHT22;13585;50.864;4.406;2023-04-19T06:49:03;19.00;63.00
25732;DHT22;13585;50.864;4.406;2023-04-19T06:51:29;19.10;63.10
25732;DHT22;13585;50.864;4.406;2023-04-19T06:53:54;19.10;63.10
25732;DHT22;13585;50.864;4.406;2023-04-19T06:56:58;19.10;63.00
25732;DHT22;13585;50.864;4.406;2023-04-19T06:59:24;19.10;63.10
25732;DHT22;13585;50.864;4.406;2023-04-19T07:01:52;19.10;63.10
25732;DHT22;13585;50.864;4.406;2023-04-19T07:04:18;19.10;63.00
25732;DHT22;13585;50.864;4.406;2023-04-19T07:06:47;19.10;63.00
25732;DHT22;13585;50.864;4.406;2023-04-19T07:09:14;19.10;63.00
25732;DHT22;13585;50.864;4.406;2023-04-19T07:11:40;19.10;63.00
25732;DHT22;13585;50.864;4.406;2023-04-19T07:14:05;19.10;63.10
25732;DHT22;13585;50.864;4.406;2023-04-19T07:16:31;19.10;63.00
25732;DHT22;13585;50.864;4.406;2023-04-19T07:18:58;19.10;63.00
25732;DHT22;13585;50.864;4.406;2023-04-19T07:21:24;19.10;63.10
25732;DHT22;13585;50.864;4.406;2023-04-19T07:23:53;19.10;63.10
25732;DHT22;13585;50.864;4.406;2023-04-19T07:26:18;19.10;63.10
25732;DHT22;13585;50.864;4.406;2023-04-19T07:28:44;19.10;63.10
25732;DHT22;13585;50.864;4.406;2023-04-19T07:31:14;19.10;63.10
25732;DHT22;13585;50.864;4.406;2023-04-19T07:33:40;19.10;63.10
25732;DHT22;13585;50.864;4.406;2023-04-19T07:36:06;19.10;63.10
25732;DHT22;13585;50.864;4.406;2023-04-19T07:38:32;19.10;63.00
25732;DHT22;13585;50.864;4.406;2023-04-19T07:40:58;19.10;63.00
25732;DHT22;13585;50.864;4.406;2023-04-19T07:43:23;19.10;63.00
25732;DHT22;13585;50.864;4.406;2023-04-19T07:45:49;19.10;63.00
25732;DHT22;13585;50.864;4.406;2023-04-19T07:48:14;19.10;63.10
25732;DHT22;13585;50.864;4.406;2023-04-19T07:50:40;19.10;62.90
25732;DHT22;13585;50.864;4.406;2023-04-19T07:53:06;19.10;62.80
25732;DHT22;13585;50.864;4.406;2023-04-19T07:55:31;19.10;62.70
25732;DHT22;13585;50.864;4.406;2023-04-19T07:57:57;19.10;62.70
25732;DHT22;13585;50.864;4.406;2023-04-19T08:00:22;19.20;62.70
25732;DHT22;13585;50.864;4.406;2023-04-19T08:02:48;19.10;62.60
25732;DHT22;13585;50.864;4.406;2023-04-19T08:05:15;19.20;62.50
25732;DHT22;13585;50.864;4.406;2023-04-19T08:07:44;19.20;62.50
25732;DHT22;13585;50.864;4.406;2023-04-19T08:10:10;19.20;62.50
25732;DHT22;13585;50.864;4.406;2023-04-19T08:12:36;19.20;63.20
25732;DHT22;13585;50.864;4.406;2023-04-19T08:15:03;19.20;62.40
25732;DHT22;13585;50.864;4.406;2023-04-19T08:17:29;19.20;62.30
25732;DHT22;13585;50.864;4.406;2023-04-19T08:19:59;19.20;62.30
25732;DHT22;13585;50.864;4.406;2023-04-19T08:22:25;19.20;62.30
25732;DHT22;13585;50.864;4.406;2023-04-19T08:24:51;19.20;62.30
25732;DHT22;13585;50.864;4.406;2023-04-19T08:27:18;19.20;62.30
25732;DHT22;13585;50.864;4.406;2023-04-19T08:29:44;19.20;62.30
25732;DHT22;13585;50.864;4.406;2023-04-19T08:32:11;19.20;62.30
25732;DHT22;13585;50.864;4.406;2023-04-19T08:34:38;19.20;62.30
25732;DHT22;13585;50.864;4.406;2023-04-19T08:37:04;19.20;62.30
25732;DHT22;13585;50.864;4.406;2023-04-19T08:39:30;19.20;62.30
25732;DHT22;13585;50.864;4.406;2023-04-19T08:44:30;19.20;62.40
25732;DHT22;13585;50.864;4.406;2023-04-19T08:46:58;19.20;62.30
25732;DHT22;13585;50.864;4.406;2023-04-19T08:49:24;19.20;62.30
25732;DHT22;13585;50.864;4.406;2023-04-19T08:51:50;19.20;62.40
25732;DHT22;13585;50.864;4.406;2023-04-19T08:54:17;19.20;62.30
25732;DHT22;13585;50.864;4.406;2023-04-19T08:56:44;19.20;62.30
25732;DHT22;13585;50.864;4.406;2023-04-19T08:59:09;19.20;62.40
25732;DHT22;13585;50.864;4.406;2023-04-19T09:01:35;19.20;62.40
25732;DHT22;13585;50.864;4.406;2023-04-19T09:04:04;19.20;62.40
25732;DHT22;13585;50.864;4.406;2023-04-19T09:06:37;19.20;62.50
25732;DHT22;13585;50.864;4.406;2023-04-19T09:09:22;19.20;62.50
25732;DHT22;13585;50.864;4.406;2023-04-19T09:11:54;19.20;62.60
25732;DHT22;13585;50.864;4.406;2023-04-19T09:14:21;19.20;62.50
25732;DHT22;13585;50.864;4.406;2023-04-19T09:16:47;19.20;62.60
25732;DHT22;13585;50.864;4.406;2023-04-19T09:19:13;19.20;62.60
25732;DHT22;13585;50.864;4.406;2023-04-19T09:21:41;19.30;62.70
25732;DHT22;13585;50.864;4.406;2023-04-19T09:24:07;19.30;62.80
25732;DHT22;13585;50.864;4.406;2023-04-19T09:26:33;19.30;62.80
25732;DHT22;13585;50.864;4.406;2023-04-19T09:29:06;19.30;62.80
25732;DHT22;13585;50.864;4.406;2023-04-19T09:31:33;19.30;62.80
25732;DHT22;13585;50.864;4.406;2023-04-19T09:34:13;19.30;62.90
25732;DHT22;13585;50.864;4.406;2023-04-19T09:36:39;19.30;63.10
25732;DHT22;13585;50.864;4.406;2023-04-19T09:39:05;19.30;63.00
25732;DHT22;13585;50.864;4.406;2023-04-19T09:41:31;19.30;63.10
25732;DHT22;13585;50.864;4.406;2023-04-19T09:44:09;19.30;63.10
25732;DHT22;13585;50.864;4.406;2023-04-19T09:46:36;19.30;63.00
25732;DHT22;13585;50.864;4.406;2023-04-19T09:51:46;19.20;63.10
25732;DHT22;13585;50.864;4.406;2023-04-19T09:54:13;19.30;63.10
25732;DHT22;13585;50.864;4.406;2023-04-19T09:56:45;19.30;63.20
25732;DHT22;13585;50.864;4.406;2023-04-19T09:59:11;19.30;63.20
25732;DHT22;13585;50.864;4.406;2023-04-19T10:01:39;19.40;63.20
25732;DHT22;13585;50.864;4.406;2023-04-19T10:04:09;19.30;63.10
25732;DHT22;13585;50.864;4.406;2023-04-19T10:06:35;19.30;63.20
25732;DHT22;13585;50.864;4.406;2023-04-19T10:09:02;19.30;63.30
25732;DHT22;13585;50.864;4.406;2023-04-19T10:11:33;19.30;63.40
25732;DHT22;13585;50.864;4.406;2023-04-19T10:14:09;19.30;63.50
25732;DHT22;13585;50.864;4.406;2023-04-19T10:16:37;19.30;63.50
25732;DHT22;13585;50.864;4.406;2023-04-19T10:19:06;19.40;63.60
25732;DHT22;13585;50.864;4.406;2023-04-19T10:21:32;19.30;63.60
25732;DHT22;13585;50.864;4.406;2023-04-19T10:23:58;19.40;63.60
25732;DHT22;13585;50.864;4.406;2023-04-19T10:26:27;19.40;63.70
25732;DHT22;13585;50.864;4.406;2023-04-19T10:28:54;19.40;63.70
25732;DHT22;13585;50.864;4.406;2023-04-19T10:31:25;19.40;63.70
25732;DHT22;13585;50.864;4.406;2023-04-19T10:33:51;19.40;63.80
25732;DHT22;13585;50.864;4.406;2023-04-19T10:36:17;19.40;63.80
25732;DHT22;13585;50.864;4.406;2023-04-19T10:38:49;19.40;63.90
25732;DHT22;13585;50.864;4.406;2023-04-19T10:41:20;19.40;64.00
25732;DHT22;13585;50.864;4.406;2023-04-19T10:48:53;19.40;64.20
25732;DHT22;13585;50.864;4.406;2023-04-19T10:51:26;19.40;64.30
25732;DHT22;13585;50.864;4.406;2023-04-19T10:54:28;19.40;64.50
25732;DHT22;13585;50.864;4.406;2023-04-19T10:59:23;19.40;64.60
25732;DHT22;13585;50.864;4.406;2023-04-19T11:01:57;19.40;64.70
25732;DHT22;13585;50.864;4.406;2023-04-19T11:07:02;19.40;64.90
25732;DHT22;13585;50.864;4.406;2023-04-19T11:09:39;19.40;64.90
25732;DHT22;13585;50.864;4.406;2023-04-19T11:12:16;19.40;65.00
25732;DHT22;13585;50.864;4.406;2023-04-19T11:14:43;19.40;65.10
25732;DHT22;13585;50.864;4.406;2023-04-19T11:17:23;19.50;65.20
25732;DHT22;13585;50.864;4.406;2023-04-19T11:20:03;19.40;65.20
25732;DHT22;13585;50.864;4.406;2023-04-19T11:22:41;19.50;65.30
25732;DHT22;13585;50.864;4.406;2023-04-19T11:27:33;19.50;65.40
25732;DHT22;13585;50.864;4.406;2023-04-19T11:30:11;19.50;65.50
25732;DHT22;13585;50.864;4.406;2023-04-19T11:32:48;19.50;65.60
25732;DHT22;13585;50.864;4.406;2023-04-19T11:35:20;19.50;65.70
25732;DHT22;13585;50.864;4.406;2023-04-19T11:37:46;19.50;66.00
25732;DHT22;13585;50.864;4.406;2023-04-19T11:40:16;19.60;66.30
25732;DHT22;13585;50.864;4.406;2023-04-19T11:42:43;19.60;66.60
25732;DHT22;13585;50.864;4.406;2023-04-19T11:45:11;19.60;66.90
25732;DHT22;13585;50.864;4.406;2023-04-19T11:47:50;19.60;67.20
25732;DHT22;13585;50.864;4.406;2023-04-19T11:50:36;19.60;67.60
25732;DHT22;13585;50.864;4.406;2023-04-19T11:53:29;19.60;67.90
25732;DHT22;13585;50.864;4.406;2023-04-19T11:56:04;19.60;68.10
25732;DHT22;13585;50.864;4.406;2023-04-19T12:01:08;19.70;68.70
25732;DHT22;13585;50.864;4.406;2023-04-19T12:03:54;19.70;69.00
25732;DHT22;13585;50.864;4.406;2023-04-19T12:06:27;19.70;69.20
25732;DHT22;13585;50.864;4.406;2023-04-19T12:08:54;19.70;69.30
25732;DHT22;13585;50.864;4.406;2023-04-19T12:11:24;19.70;69.50
25732;DHT22;13585;50.864;4.406;2023-04-19T12:14:15;19.70;69.70
25732;DHT22;13585;50.864;4.406;2023-04-19T12:16:41;19.70;69.90
25732;DHT22;13585;50.864;4.406;2023-04-19T12:19:11;19.80;69.90
25732;DHT22;13585;50.864;4.406;2023-04-19T12:21:40;19.80;70.10
25732;DHT22;13585;50.864;4.406;2023-04-19T12:24:06;19.70;70.20
25732;DHT22;13585;50.864;4.406;2023-04-19T12:26:32;19.70;70.20
25732;DHT22;13585;50.864;4.406;2023-04-19T12:28:59;19.80;70.40
25732;DHT22;13585;50.864;4.406;2023-04-19T12:31:25;19.80;70.50
25732;DHT22;13585;50.864;4.406;2023-04-19T12:33:51;19.80;70.50
25732;DHT22;13585;50.864;4.406;2023-04-19T12:36:17;19.80;70.50
25732;DHT22;13585;50.864;4.406;2023-04-19T12:38:43;19.80;70.60
25732;DHT22;13585;50.864;4.406;2023-04-19T12:41:09;19.80;70.70
25732;DHT22;13585;50.864;4.406;2023-04-19T12:43:34;19.80;70.80
25732;DHT22;13585;50.864;4.406;2023-04-19T12:46:00;19.80;70.80
25732;DHT22;13585;50.864;4.406;2023-04-19T12:48:26;19.80;70.80
25732;DHT22;13585;50.864;4.406;2023-04-19T12:50:52;19.80;70.80
25732;DHT22;13585;50.864;4.406;2023-04-19T12:53:18;19.90;70.90
25732;DHT22;13585;50.864;4.406;2023-04-19T12:55:44;19.80;70.90
25732;DHT22;13585;50.864;4.406;2023-04-19T12:58:15;19.80;71.00
25732;DHT22;13585;50.864;4.406;2023-04-19T13:00:41;19.80;71.00
25732;DHT22;13585;50.864;4.406;2023-04-19T13:03:07;19.80;71.00
25732;DHT22;13585;50.864;4.406;2023-04-19T13:05:33;19.90;71.10
25732;DHT22;13585;50.864;4.406;2023-04-19T13:07:58;19.90;71.10
25732;DHT22;13585;50.864;4.406;2023-04-19T13:10:24;19.90;71.10
25732;DHT22;13585;50.864;4.406;2023-04-19T13:12:50;19.90;71.20
25732;DHT22;13585;50.864;4.406;2023-04-19T13:15:16;19.90;71.20
25732;DHT22;13585;50.864;4.406;2023-04-19T13:17:42;19.90;71.20
25732;DHT22;13585;50.864;4.406;2023-04-19T13:20:08;19.90;71.20
25732;DHT22;13585;50.864;4.406;2023-04-19T13:22:34;19.90;71.20
25732;DHT22;13585;50.864;4.406;2023-04-19T13:25:00;19.90;71.20
25732;DHT22;13585;50.864;4.406;2023-04-19T13:27:25;19.90;71.20
25732;DHT22;13585;50.864;4.406;2023-04-19T13:29:53;19.90;71.30
25732;DHT22;13585;50.864;4.406;2023-04-19T13:32:19;19.90;71.30
25732;DHT22;13585;50.864;4.406;2023-04-19T13:34:44;20.00;71.40
25732;DHT22;13585;50.864;4.406;2023-04-19T13:37:10;20.00;71.40
25732;DHT22;13585;50.864;4.406;2023-04-19T13:39:36;20.00;71.40
25732;DHT22;13585;50.864;4.406;2023-04-19T13:42:01;20.00;71.40
25732;DHT22;13585;50.864;4.406;2023-04-19T13:44:28;20.00;71.40
25732;DHT22;13585;50.864;4.406;2023-04-19T13:46:53;20.00;71.20
25732;DHT22;13585;50.864;4.406;2023-04-19T13:49:19;20.00;71.20
25732;DHT22;13585;50.864;4.406;2023-04-19T13:51:45;20.00;71.10
25732;DHT22;13585;50.864;4.406;2023-04-19T13:54:11;20.00;71.10
25732;DHT22;13585;50.864;4.406;2023-04-19T13:56:36;20.00;71.10
25732;DHT22;13585;50.864;4.406;2023-04-19T13:59:02;20.00;71.10
25732;DHT22;13585;50.864;4.406;2023-04-19T14:01:27;20.00;71.10
25732;DHT22;13585;50.864;4.406;2023-04-19T14:04:00;20.00;71.10
25732;DHT22;13585;50.864;4.406;2023-04-19T14:06:25;20.00;71.10
25732;DHT22;13585;50.864;4.406;2023-04-19T14:08:52;20.00;71.10
25732;DHT22;13585;50.864;4.406;2023-04-19T14:11:17;20.10;71.20
25732;DHT22;13585;50.864;4.406;2023-04-19T14:13:43;20.10;71.20
25732;DHT22;13585;50.864;4.406;2023-04-19T14:16:09;20.10;71.30
25732;DHT22;13585;50.864;4.406;2023-04-19T14:18:35;20.10;71.30
25732;DHT22;13585;50.864;4.406;2023-04-19T14:21:01;20.10;71.30
25732;DHT22;13585;50.864;4.406;2023-04-19T14:23:26;20.10;71.20
25732;DHT22;13585;50.864;4.406;2023-04-19T14:25:52;20.10;71.30
25732;DHT22;13585;50.864;4.406;2023-04-19T14:28:18;20.10;71.30
25732;DHT22;13585;50.864;4.406;2023-04-19T14:30:43;20.10;71.20
25732;DHT22;13585;50.864;4.406;2023-04-19T14:33:09;20.10;71.20
25732;DHT22;13585;50.864;4.406;2023-04-19T14:35:35;20.10;71.20
25732;DHT22;13585;50.864;4.406;2023-04-19T14:38:00;20.20;71.30
25732;DHT22;13585;50.864;4.406;2023-04-19T14:40:26;20.10;71.20
25732;DHT22;13585;50.864;4.406;2023-04-19T14:42:52;20.20;71.20
25732;DHT22;13585;50.864;4.406;2023-04-19T14:45:17;20.20;71.20
25732;DHT22;13585;50.864;4.406;2023-04-19T14:47:43;20.20;71.10
25732;DHT22;13585;50.864;4.406;2023-04-19T14:50:09;20.20;71.10
25732;DHT22;13585;50.864;4.406;2023-04-19T14:52:37;20.20;71.00
25732;DHT22;13585;50.864;4.406;2023-04-19T14:55:02;20.20;70.90
25732;DHT22;13585;50.864;4.406;2023-04-19T14:57:28;20.20;70.80
25732;DHT22;13585;50.864;4.406;2023-04-19T14:59:55;20.20;70.70
25732;DHT22;13585;50.864;4.406;2023-04-19T15:02:25;20.20;70.70
25732;DHT22;13585;50.864;4.406;2023-04-19T15:04:51;20.20;70.60
25732;DHT22;13585;50.864;4.406;2023-04-19T15:07:17;20.20;70.50
25732;DHT22;13585;50.864;4.406;2023-04-19T15:09:42;20.20;70.40
25732;DHT22;13585;50.864;4.406;2023-04-19T15:12:08;20.20;70.30
25732;DHT22;13585;50.864;4.406;2023-04-19T15:14:34;20.20;70.30
25732;DHT22;13585;50.864;4.406;2023-04-19T15:16:59;20.20;70.10
25732;DHT22;13585;50.864;4.406;2023-04-19T15:19:25;20.20;70.10
25732;DHT22;13585;50.864;4.406;2023-04-19T15:21:51;20.20;70.00
25732;DHT22;13585;50.864;4.406;2023-04-19T15:24:16;20.30;70.00
25732;DHT22;13585;50.864;4.406;2023-04-19T15:26:42;20.30;70.00
25732;DHT22;13585;50.864;4.406;2023-04-19T15:29:08;20.20;69.80
25732;DHT22;13585;50.864;4.406;2023-04-19T15:31:33;20.20;69.70
25732;DHT22;13585;50.864;4.406;2023-04-19T15:34:02;20.20;69.60
25732;DHT22;13585;50.864;4.406;2023-04-19T15:36:28;20.30;69.60
25732;DHT22;13585;50.864;4.406;2023-04-19T15:38:54;20.30;69.50
25732;DHT22;13585;50.864;4.406;2023-04-19T15:41:21;20.30;70.20
25732;DHT22;13585;50.864;4.406;2023-04-19T15:43:46;20.30;70.10
25732;DHT22;13585;50.864;4.406;2023-04-19T15:46:12;20.30;69.20
25732;DHT22;13585;50.864;4.406;2023-04-19T15:48:38;20.30;69.20
25732;DHT22;13585;50.864;4.406;2023-04-19T15:51:04;20.30;69.10
25732;DHT22;13585;50.864;4.406;2023-04-19T15:53:30;20.30;69.00